»·PEaware :: N799BS KGJT-KSLC

N799BS :: KGJT-KSLC

FLIGHT INFORMATION

Flight Status: Arrived
Operator: Privately registered:
United States
More flights under this callsign
Pilot: Bradley C. (23947)
Aircraft: ECLIPSE 500
(EA50)
More flights by this aircraft type
Origin: KGJT Grand Junction Regl
United States
Destination: KSLC Salt Lake City Intl
United States
More flights between these airports :: More routes between these airports
Route: +JNC7 JNC J12 HELPR LEEHY5
File this flight plan on PilotEdge
Remarks:
Altitude:
(Current/Filed)
22,000ft
Speed:
(Current/Filed)
260kts
Departed: 10-Jul-19 09:53 AM
Arrived: 10-Jul-19 10:38 AM
Distance/Time
Traveled:
187nm/0:45
Distance/Time
To Go:
Arrived

Flight Plot

Page will automatically refresh every two minutes.

Flight plan parsing failed; only flown route is shown


Map Options




Map Legend


Flown Route
Filed Route
Departure Airport
Arrival Airport
Navaid (VOR, NDB)
Fix

Horizontal Profiles

Position Reports

Time Latitude Longitude Heading Altitude Ground
Speed
10-Jul-19 09:28 39.120113 -108.521173 216 4838ft 0kts
10-Jul-19 09:29 39.120113 -108.521173 216 4838ft 0kts
10-Jul-19 09:30 39.120113 -108.521173 216 4838ft 0kts
10-Jul-19 09:31 39.120113 -108.521173 216 4838ft 0kts
10-Jul-19 09:32 39.120113 -108.521173 216 4838ft 0kts
10-Jul-19 09:33 39.120113 -108.521173 216 4838ft 0kts
10-Jul-19 09:34 39.120113 -108.521173 216 4838ft 0kts
10-Jul-19 09:35 39.120113 -108.521173 216 4838ft 0kts
10-Jul-19 09:36 39.120113 -108.521173 216 4838ft 0kts
10-Jul-19 09:37 39.120113 -108.521173 216 4838ft 0kts
10-Jul-19 09:38 39.120113 -108.521173 216 4838ft 0kts
10-Jul-19 09:39 39.120113 -108.521173 216 4838ft 0kts
10-Jul-19 09:40 39.120113 -108.521173 216 4838ft 0kts
10-Jul-19 09:41 39.120113 -108.521173 216 4838ft 0kts
10-Jul-19 09:42 39.120113 -108.521173 216 4838ft 0kts
10-Jul-19 09:43 39.120113 -108.521173 216 4838ft 0kts
10-Jul-19 09:44 39.120113 -108.521173 216 4838ft 0kts
10-Jul-19 09:45 39.119954 -108.521145 137 4838ft 0kts
10-Jul-19 09:46 39.119745 -108.519053 119 4844ft 8kts
10-Jul-19 09:47 39.118506 -108.516825 124 4846ft 9kts
10-Jul-19 09:48 39.118360 -108.516555 124 4846ft 4kts
10-Jul-19 09:49 39.118343 -108.516523 124 4846ft 0kts
10-Jul-19 09:50 39.118343 -108.516523 124 4846ft 0kts
10-Jul-19 09:51 39.118990 -108.515168 304 4850ft 4kts
10-Jul-19 09:52 39.136312 -108.548605 299 6145ft 179kts
10-Jul-19 09:53 39.137816 -108.617540 242 8193ft 234kts
10-Jul-19 09:54 39.103738 -108.696905 240 10185ft 277kts
10-Jul-19 09:55 39.068241 -108.776214 241 12044ft 292kts
10-Jul-19 09:56 39.089988 -108.872547 299 14118ft 302kts
10-Jul-19 09:57 39.130561 -108.968601 297 16200ft 309kts
10-Jul-19 09:58 39.170534 -109.066786 296 18283ft 309kts
10-Jul-19 09:59 39.209894 -109.164425 296 20358ft 305kts
10-Jul-19 10:00 39.249310 -109.260421 296 22275ft 305kts
10-Jul-19 10:01 39.293132 -109.364670 297 22315ft 354kts
10-Jul-19 10:02 39.343068 -109.480774 298 22293ft 380kts
10-Jul-19 10:03 39.395978 -109.600572 299 22292ft 386kts
10-Jul-19 10:04 39.450472 -109.720536 299 22307ft 386kts
10-Jul-19 10:05 39.506202 -109.839833 300 22308ft 387kts
10-Jul-19 10:06 39.562903 -109.957894 301 22326ft 387kts
10-Jul-19 10:07 39.621006 -110.075612 301 22378ft 387kts
10-Jul-19 10:08 39.679941 -110.191836 302 22401ft 387kts
10-Jul-19 10:09 39.716447 -110.320381 281 22404ft 384kts
10-Jul-19 10:10 39.738627 -110.455711 280 22413ft 384kts
10-Jul-19 10:11 39.773542 -110.586363 295 22392ft 387kts
10-Jul-19 10:12 39.820692 -110.711983 294 22399ft 386kts
10-Jul-19 10:13 39.867494 -110.837816 294 22434ft 386kts
10-Jul-19 10:14 39.914141 -110.963827 294 22438ft 386kts
10-Jul-19 10:15 39.960682 -111.090115 294 22436ft 386kts
10-Jul-19 10:16 40.006965 -111.216278 294 22408ft 386kts
10-Jul-19 10:18 40.053795 -111.342324 294 22349ft 386kts
10-Jul-19 10:19 40.099817 -111.465825 294 22333ft 385kts
10-Jul-19 10:20 40.146370 -111.591298 294 21658ft 373kts
10-Jul-19 10:21 40.184005 -111.693090 293 19348ft 280kts
10-Jul-19 10:22 40.216797 -111.782129 293 17707ft 270kts
10-Jul-19 10:23 40.247674 -111.866095 292 17100ft 236kts
10-Jul-19 10:24 40.276069 -111.940492 308 17105ft 262kts
10-Jul-19 10:25 40.341894 -111.991671 328 15930ft 293kts
10-Jul-19 10:26 40.412787 -112.044747 329 15078ft 278kts
10-Jul-19 10:27 40.488132 -112.058886 353 14208ft 286kts
10-Jul-19 10:28 40.568939 -112.069565 353 12635ft 299kts
10-Jul-19 10:29 40.647546 -112.079760 354 11047ft 259kts
10-Jul-19 10:30 40.721850 -112.088398 354 11036ft 258kts
10-Jul-19 10:31 40.792381 -112.096627 354 10421ft 259kts
10-Jul-19 10:32 40.863158 -112.105535 354 9077ft 244kts
10-Jul-19 10:33 40.922376 -112.083372 77 8626ft 233kts
10-Jul-19 10:34 40.918325 -112.007495 153 7402ft 217kts
10-Jul-19 10:35 40.864858 -111.975485 148 5996ft 202kts
10-Jul-19 10:36 40.823112 -111.962096 175 4757ft 123kts
10-Jul-19 10:36 40.797482 -111.962125 176 4243ft 92kts
10-Jul-19 10:38 40.786072 -111.960703 128 4219ft 13kts

Navigation Log

Ident Type
Flight plan parsing failed, navigation log unavailable